sensor_id;sensor_type;location;lat;lon;timestamp;P1;durP1;ratioP1;P2;durP2;ratioP2
21959;SDS011;11144;43.030;25.108;2023-05-13T00:00:53;5.57;;;2.10;;
21959;SDS011;11144;43.030;25.108;2023-05-13T00:02:26;6.28;;;1.60;;
21959;SDS011;11144;43.030;25.108;2023-05-13T00:03:59;4.80;;;1.98;;
21959;SDS011;11144;43.030;25.108;2023-05-13T00:05:33;2.50;;;1.50;;
21959;SDS011;11144;43.030;25.108;2023-05-13T00:07:06;2.47;;;1.75;;
21959;SDS011;11144;43.030;25.108;2023-05-13T00:08:38;4.95;;;1.85;;
21959;SDS011;11144;43.030;25.108;2023-05-13T00:10:12;3.20;;;1.60;;
21959;SDS011;11144;43.030;25.108;2023-05-13T00:11:44;3.20;;;1.60;;
21959;SDS011;11144;43.030;25.108;2023-05-13T00:13:17;4.60;;;1.55;;
21959;SDS011;11144;43.030;25.108;2023-05-13T00:14:49;3.83;;;1.52;;
21959;SDS011;11144;43.030;25.108;2023-05-13T00:16:23;5.00;;;1.73;;
21959;SDS011;11144;43.030;25.108;2023-05-13T00:17:59;3.75;;;1.70;;
21959;SDS011;11144;43.030;25.108;2023-05-13T00:19:33;4.63;;;2.33;;
21959;SDS011;11144;43.030;25.108;2023-05-13T00:21:06;4.93;;;2.95;;
21959;SDS011;11144;43.030;25.108;2023-05-13T00:22:39;3.70;;;2.10;;
21959;SDS011;11144;43.030;25.108;2023-05-13T00:24:12;3.78;;;2.20;;
21959;SDS011;11144;43.030;25.108;2023-05-13T00:25:46;5.03;;;2.10;;
21959;SDS011;11144;43.030;25.108;2023-05-13T00:27:19;3.03;;;1.92;;
21959;SDS011;11144;43.030;25.108;2023-05-13T00:28:52;2.53;;;1.45;;
21959;SDS011;11144;43.030;25.108;2023-05-13T00:30:26;5.28;;;1.92;;
21959;SDS011;11144;43.030;25.108;2023-05-13T00:31:58;3.60;;;2.05;;
21959;SDS011;11144;43.030;25.108;2023-05-13T00:33:33;2.22;;;1.40;;
21959;SDS011;11144;43.030;25.108;2023-05-13T00:35:05;3.65;;;1.42;;
21959;SDS011;11144;43.030;25.108;2023-05-13T00:36:39;3.38;;;1.40;;
21959;SDS011;11144;43.030;25.108;2023-05-13T00:38:13;4.95;;;1.50;;
21959;SDS011;11144;43.030;25.108;2023-05-13T00:39:46;2.22;;;1.30;;
21959;SDS011;11144;43.030;25.108;2023-05-13T00:41:19;2.88;;;1.58;;
21959;SDS011;11144;43.030;25.108;2023-05-13T00:42:52;2.33;;;1.45;;
21959;SDS011;11144;43.030;25.108;2023-05-13T00:44:26;3.53;;;1.42;;
21959;SDS011;11144;43.030;25.108;2023-05-13T00:45:59;3.70;;;1.80;;
21959;SDS011;11144;43.030;25.108;2023-05-13T00:47:33;12.80;;;1.60;;
21959;SDS011;11144;43.030;25.108;2023-05-13T00:49:07;2.25;;;1.45;;
21959;SDS011;11144;43.030;25.108;2023-05-13T00:50:40;3.17;;;1.15;;
21959;SDS011;11144;43.030;25.108;2023-05-13T00:52:15;2.90;;;1.70;;
21959;SDS011;11144;43.030;25.108;2023-05-13T00:53:48;4.10;;;1.45;;
21959;SDS011;11144;43.030;25.108;2023-05-13T00:55:23;2.65;;;1.60;;
21959;SDS011;11144;43.030;25.108;2023-05-13T00:56:56;3.92;;;1.95;;
21959;SDS011;11144;43.030;25.108;2023-05-13T00:58:30;2.72;;;1.67;;
21959;SDS011;11144;43.030;25.108;2023-05-13T01:00:03;3.50;;;1.60;;
21959;SDS011;11144;43.030;25.108;2023-05-13T01:01:40;3.55;;;1.75;;
21959;SDS011;11144;43.030;25.108;2023-05-13T01:03:20;5.05;;;1.98;;
21959;SDS011;11144;43.030;25.108;2023-05-13T01:05:05;3.00;;;1.83;;
21959;SDS011;11144;43.030;25.108;2023-05-13T01:06:48;2.63;;;1.55;;
21959;SDS011;11144;43.030;25.108;2023-05-13T01:08:31;5.05;;;2.13;;
21959;SDS011;11144;43.030;25.108;2023-05-13T01:10:10;3.60;;;2.20;;
21959;SDS011;11144;43.030;25.108;2023-05-13T01:11:52;3.45;;;2.00;;
21959;SDS011;11144;43.030;25.108;2023-05-13T01:13:27;4.03;;;2.05;;
21959;SDS011;11144;43.030;25.108;2023-05-13T01:15:04;2.95;;;1.60;;
21959;SDS011;11144;43.030;25.108;2023-05-13T01:16:44;3.13;;;1.75;;
21959;SDS011;11144;43.030;25.108;2023-05-13T01:18:33;3.35;;;2.25;;
21959;SDS011;11144;43.030;25.108;2023-05-13T01:20:11;4.90;;;1.83;;
21959;SDS011;11144;43.030;25.108;2023-05-13T01:21:51;2.90;;;1.60;;
21959;SDS011;11144;43.030;25.108;2023-05-13T01:23:25;2.40;;;1.65;;
21959;SDS011;11144;43.030;25.108;2023-05-13T01:24:58;3.70;;;1.77;;
21959;SDS011;11144;43.030;25.108;2023-05-13T01:26:31;4.00;;;1.67;;
21959;SDS011;11144;43.030;25.108;2023-05-13T01:28:04;3.30;;;1.80;;
21959;SDS011;11144;43.030;25.108;2023-05-13T01:29:39;3.08;;;1.75;;
21959;SDS011;11144;43.030;25.108;2023-05-13T01:31:14;1.98;;;1.60;;
21959;SDS011;11144;43.030;25.108;2023-05-13T01:32:47;3.75;;;2.00;;
21959;SDS011;11144;43.030;25.108;2023-05-13T01:34:22;3.22;;;1.80;;
21959;SDS011;11144;43.030;25.108;2023-05-13T01:35:57;2.15;;;1.42;;
21959;SDS011;11144;43.030;25.108;2023-05-13T01:37:32;2.47;;;1.45;;
21959;SDS011;11144;43.030;25.108;2023-05-13T01:39:05;2.55;;;1.70;;
21959;SDS011;11144;43.030;25.108;2023-05-13T01:40:40;3.15;;;1.88;;
21959;SDS011;11144;43.030;25.108;2023-05-13T01:42:13;2.38;;;1.40;;
21959;SDS011;11144;43.030;25.108;2023-05-13T01:43:47;5.30;;;1.80;;
21959;SDS011;11144;43.030;25.108;2023-05-13T01:45:20;4.00;;;1.70;;
21959;SDS011;11144;43.030;25.108;2023-05-13T01:46:53;4.40;;;1.67;;
21959;SDS011;11144;43.030;25.108;2023-05-13T01:48:28;3.03;;;1.48;;
21959;SDS011;11144;43.030;25.108;2023-05-13T01:50:01;2.58;;;1.60;;
21959;SDS011;11144;43.030;25.108;2023-05-13T01:51:35;2.83;;;1.85;;
21959;SDS011;11144;43.030;25.108;2023-05-13T01:53:11;1.92;;;1.50;;
21959;SDS011;11144;43.030;25.108;2023-05-13T01:54:45;1.55;;;1.20;;
21959;SDS011;11144;43.030;25.108;2023-05-13T01:56:18;2.63;;;1.77;;
21959;SDS011;11144;43.030;25.108;2023-05-13T01:57:53;3.03;;;1.25;;
21959;SDS011;11144;43.030;25.108;2023-05-13T01:59:27;3.10;;;1.40;;
21959;SDS011;11144;43.030;25.108;2023-05-13T02:01:03;3.70;;;1.40;;
21959;SDS011;11144;43.030;25.108;2023-05-13T02:02:36;5.28;;;2.80;;
21959;SDS011;11144;43.030;25.108;2023-05-13T02:04:08;4.57;;;2.08;;
21959;SDS011;11144;43.030;25.108;2023-05-13T02:05:41;4.15;;;1.60;;
21959;SDS011;11144;43.030;25.108;2023-05-13T02:07:16;2.60;;;1.20;;
21959;SDS011;11144;43.030;25.108;2023-05-13T02:08:51;5.63;;;1.75;;
21959;SDS011;11144;43.030;25.108;2023-05-13T02:10:25;3.55;;;1.50;;
21959;SDS011;11144;43.030;25.108;2023-05-13T02:11:58;2.15;;;1.25;;
21959;SDS011;11144;43.030;25.108;2023-05-13T02:13:32;2.50;;;1.42;;
21959;SDS011;11144;43.030;25.108;2023-05-13T02:15:05;2.03;;;1.20;;
21959;SDS011;11144;43.030;25.108;2023-05-13T02:16:38;3.90;;;1.35;;
21959;SDS011;11144;43.030;25.108;2023-05-13T02:18:11;2.30;;;1.25;;
21959;SDS011;11144;43.030;25.108;2023-05-13T02:19:45;5.63;;;1.70;;
21959;SDS011;11144;43.030;25.108;2023-05-13T02:21:18;4.75;;;1.90;;
21959;SDS011;11144;43.030;25.108;2023-05-13T02:22:51;3.78;;;1.80;;
21959;SDS011;11144;43.030;25.108;2023-05-13T02:24:25;3.80;;;1.60;;
21959;SDS011;11144;43.030;25.108;2023-05-13T02:25:58;13.05;;;3.22;;
21959;SDS011;11144;43.030;25.108;2023-05-13T02:27:32;2.30;;;1.52;;
21959;SDS011;11144;43.030;25.108;2023-05-13T02:29:05;2.30;;;1.30;;
21959;SDS011;11144;43.030;25.108;2023-05-13T02:30:38;1.52;;;1.40;;
21959;SDS011;11144;43.030;25.108;2023-05-13T02:32:11;4.30;;;2.42;;
21959;SDS011;11144;43.030;25.108;2023-05-13T02:33:44;4.55;;;2.95;;
21959;SDS011;11144;43.030;25.108;2023-05-13T02:35:18;2.92;;;2.20;;
21959;SDS011;11144;43.030;25.108;2023-05-13T02:36:50;4.13;;;2.47;;
21959;SDS011;11144;43.030;25.108;2023-05-13T02:38:24;5.93;;;3.28;;
21959;SDS011;11144;43.030;25.108;2023-05-13T02:39:57;4.53;;;3.10;;
21959;SDS011;11144;43.030;25.108;2023-05-13T02:41:30;6.25;;;3.97;;
21959;SDS011;11144;43.030;25.108;2023-05-13T02:43:04;5.35;;;3.63;;
21959;SDS011;11144;43.030;25.108;2023-05-13T02:44:50;6.35;;;3.58;;
21959;SDS011;11144;43.030;25.108;2023-05-13T02:46:23;5.97;;;3.58;;
21959;SDS011;11144;43.030;25.108;2023-05-13T02:47:58;4.35;;;3.15;;
21959;SDS011;11144;43.030;25.108;2023-05-13T02:49:33;5.22;;;2.85;;
21959;SDS011;11144;43.030;25.108;2023-05-13T02:51:06;3.42;;;2.58;;
21959;SDS011;11144;43.030;25.108;2023-05-13T02:52:40;3.55;;;2.50;;
21959;SDS011;11144;43.030;25.108;2023-05-13T02:54:13;4.35;;;3.58;;
21959;SDS011;11144;43.030;25.108;2023-05-13T02:55:48;5.65;;;2.40;;
21959;SDS011;11144;43.030;25.108;2023-05-13T02:57:21;5.45;;;1.65;;
21959;SDS011;11144;43.030;25.108;2023-05-13T02:58:55;2.55;;;1.45;;
21959;SDS011;11144;43.030;25.108;2023-05-13T03:00:28;2.65;;;1.70;;
21959;SDS011;11144;43.030;25.108;2023-05-13T03:02:00;3.22;;;1.50;;
21959;SDS011;11144;43.030;25.108;2023-05-13T03:03:34;3.88;;;1.45;;
21959;SDS011;11144;43.030;25.108;2023-05-13T03:05:08;3.75;;;1.67;;
21959;SDS011;11144;43.030;25.108;2023-05-13T03:06:41;2.28;;;1.25;;
21959;SDS011;11144;43.030;25.108;2023-05-13T03:08:13;3.75;;;1.83;;
21959;SDS011;11144;43.030;25.108;2023-05-13T03:09:47;2.97;;;1.60;;
21959;SDS011;11144;43.030;25.108;2023-05-13T03:11:24;2.70;;;1.23;;
21959;SDS011;11144;43.030;25.108;2023-05-13T03:12:57;4.25;;;1.58;;
21959;SDS011;11144;43.030;25.108;2023-05-13T03:14:31;4.45;;;2.13;;
21959;SDS011;11144;43.030;25.108;2023-05-13T03:16:07;2.70;;;1.65;;
21959;SDS011;11144;43.030;25.108;2023-05-13T03:17:40;2.95;;;1.70;;
21959;SDS011;11144;43.030;25.108;2023-05-13T03:19:15;3.92;;;1.60;;
21959;SDS011;11144;43.030;25.108;2023-05-13T03:20:48;3.30;;;1.35;;
21959;SDS011;11144;43.030;25.108;2023-05-13T03:22:22;2.92;;;1.25;;
21959;SDS011;11144;43.030;25.108;2023-05-13T03:23:55;3.92;;;1.40;;
21959;SDS011;11144;43.030;25.108;2023-05-13T03:25:28;2.50;;;1.38;;
21959;SDS011;11144;43.030;25.108;2023-05-13T03:27:04;5.65;;;1.55;;
21959;SDS011;11144;43.030;25.108;2023-05-13T03:28:38;3.10;;;1.70;;
21959;SDS011;11144;43.030;25.108;2023-05-13T03:30:11;2.20;;;1.48;;
21959;SDS011;11144;43.030;25.108;2023-05-13T03:31:54;3.03;;;1.50;;
21959;SDS011;11144;43.030;25.108;2023-05-13T03:33:27;2.72;;;1.42;;
21959;SDS011;11144;43.030;25.108;2023-05-13T03:35:01;4.75;;;1.80;;
21959;SDS011;11144;43.030;25.108;2023-05-13T03:36:35;3.63;;;1.67;;
21959;SDS011;11144;43.030;25.108;2023-05-13T03:38:10;3.05;;;1.92;;
21959;SDS011;11144;43.030;25.108;2023-05-13T03:39:47;2.80;;;1.55;;
21959;SDS011;11144;43.030;25.108;2023-05-13T03:41:21;3.75;;;1.60;;
21959;SDS011;11144;43.030;25.108;2023-05-13T03:42:55;2.65;;;1.40;;
21959;SDS011;11144;43.030;25.108;2023-05-13T03:44:29;3.33;;;1.63;;
21959;SDS011;11144;43.030;25.108;2023-05-13T03:46:02;2.85;;;1.60;;
21959;SDS011;11144;43.030;25.108;2023-05-13T03:47:34;2.97;;;1.67;;
21959;SDS011;11144;43.030;25.108;2023-05-13T03:49:13;3.80;;;1.92;;
21959;SDS011;11144;43.030;25.108;2023-05-13T03:50:46;3.42;;;1.98;;
21959;SDS011;11144;43.030;25.108;2023-05-13T03:52:19;4.90;;;2.50;;
21959;SDS011;11144;43.030;25.108;2023-05-13T03:53:52;9.13;;;4.07;;
21959;SDS011;11144;43.030;25.108;2023-05-13T03:55:25;7.18;;;3.80;;
21959;SDS011;11144;43.030;25.108;2023-05-13T03:56:59;6.80;;;4.00;;
21959;SDS011;11144;43.030;25.108;2023-05-13T03:58:32;3.53;;;2.10;;
21959;SDS011;11144;43.030;25.108;2023-05-13T04:00:07;4.43;;;2.22;;
21959;SDS011;11144;43.030;25.108;2023-05-13T04:01:47;9.40;;;1.77;;
21959;SDS011;11144;43.030;25.108;2023-05-13T04:03:20;3.38;;;2.28;;
21959;SDS011;11144;43.030;25.108;2023-05-13T04:04:54;3.70;;;1.50;;
21959;SDS011;11144;43.030;25.108;2023-05-13T04:06:26;3.05;;;1.42;;
21959;SDS011;11144;43.030;25.108;2023-05-13T04:07:59;2.90;;;1.60;;
21959;SDS011;11144;43.030;25.108;2023-05-13T04:09:32;2.40;;;1.42;;
21959;SDS011;11144;43.030;25.108;2023-05-13T04:11:05;2.97;;;1.58;;
21959;SDS011;11144;43.030;25.108;2023-05-13T04:12:39;2.70;;;1.90;;
21959;SDS011;11144;43.030;25.108;2023-05-13T04:14:14;2.50;;;1.77;;
21959;SDS011;11144;43.030;25.108;2023-05-13T04:15:47;2.45;;;1.90;;
21959;SDS011;11144;43.030;25.108;2023-05-13T04:17:21;5.10;;;3.65;;
21959;SDS011;11144;43.030;25.108;2023-05-13T04:18:54;6.20;;;3.95;;
21959;SDS011;11144;43.030;25.108;2023-05-13T04:20:28;2.38;;;1.33;;
21959;SDS011;11144;43.030;25.108;2023-05-13T04:22:00;3.05;;;1.98;;
21959;SDS011;11144;43.030;25.108;2023-05-13T04:23:33;3.22;;;1.95;;
21959;SDS011;11144;43.030;25.108;2023-05-13T04:25:07;3.80;;;1.73;;
21959;SDS011;11144;43.030;25.108;2023-05-13T04:26:39;4.43;;;1.98;;
21959;SDS011;11144;43.030;25.108;2023-05-13T04:28:13;3.10;;;1.30;;
21959;SDS011;11144;43.030;25.108;2023-05-13T04:29:48;4.53;;;2.28;;
21959;SDS011;11144;43.030;25.108;2023-05-13T04:31:22;10.43;;;5.55;;
21959;SDS011;11144;43.030;25.108;2023-05-13T04:32:55;4.28;;;2.38;;
21959;SDS011;11144;43.030;25.108;2023-05-13T04:34:29;2.30;;;1.80;;
21959;SDS011;11144;43.030;25.108;2023-05-13T04:36:02;3.00;;;1.65;;
21959;SDS011;11144;43.030;25.108;2023-05-13T04:37:36;4.95;;;2.90;;
21959;SDS011;11144;43.030;25.108;2023-05-13T04:39:12;3.58;;;1.65;;
21959;SDS011;11144;43.030;25.108;2023-05-13T04:40:47;3.25;;;1.75;;
21959;SDS011;11144;43.030;25.108;2023-05-13T04:42:25;4.65;;;2.33;;
21959;SDS011;11144;43.030;25.108;2023-05-13T04:43:59;3.22;;;1.50;;
21959;SDS011;11144;43.030;25.108;2023-05-13T04:45:34;4.32;;;3.33;;
21959;SDS011;11144;43.030;25.108;2023-05-13T04:47:10;25.88;;;17.40;;
21959;SDS011;11144;43.030;25.108;2023-05-13T04:48:44;31.00;;;22.88;;
21959;SDS011;11144;43.030;25.108;2023-05-13T04:50:19;32.47;;;23.30;;
21959;SDS011;11144;43.030;25.108;2023-05-13T04:51:53;22.80;;;16.15;;
21959;SDS011;11144;43.030;25.108;2023-05-13T04:53:27;19.58;;;13.75;;
21959;SDS011;11144;43.030;25.108;2023-05-13T04:55:04;16.73;;;11.25;;
21959;SDS011;11144;43.030;25.108;2023-05-13T04:56:37;12.10;;;9.02;;
21959;SDS011;11144;43.030;25.108;2023-05-13T04:58:11;7.00;;;5.50;;
21959;SDS011;11144;43.030;25.108;2023-05-13T04:59:44;9.80;;;5.13;;
21959;SDS011;11144;43.030;25.108;2023-05-13T05:01:21;7.63;;;4.30;;
21959;SDS011;11144;43.030;25.108;2023-05-13T05:02:55;8.43;;;6.22;;
21959;SDS011;11144;43.030;25.108;2023-05-13T05:04:29;8.73;;;6.43;;
21959;SDS011;11144;43.030;25.108;2023-05-13T05:06:03;11.13;;;7.43;;
21959;SDS011;11144;43.030;25.108;2023-05-13T05:07:37;14.75;;;8.30;;
21959;SDS011;11144;43.030;25.108;2023-05-13T05:09:12;11.05;;;7.03;;
21959;SDS011;11144;43.030;25.108;2023-05-13T05:10:45;11.70;;;7.70;;
21959;SDS011;11144;43.030;25.108;2023-05-13T05:12:18;8.77;;;5.15;;
21959;SDS011;11144;43.030;25.108;2023-05-13T05:13:51;6.20;;;4.28;;
21959;SDS011;11144;43.030;25.108;2023-05-13T05:15:24;4.40;;;2.50;;
21959;SDS011;11144;43.030;25.108;2023-05-13T05:17:01;3.83;;;2.50;;
21959;SDS011;11144;43.030;25.108;2023-05-13T05:18:35;4.43;;;2.38;;
21959;SDS011;11144;43.030;25.108;2023-05-13T05:20:09;7.03;;;3.05;;
21959;SDS011;11144;43.030;25.108;2023-05-13T05:21:42;9.63;;;4.60;;
21959;SDS011;11144;43.030;25.108;2023-05-13T05:23:16;7.38;;;3.30;;
21959;SDS011;11144;43.030;25.108;2023-05-13T05:24:49;4.50;;;3.15;;
21959;SDS011;11144;43.030;25.108;2023-05-13T05:26:22;7.30;;;3.58;;
21959;SDS011;11144;43.030;25.108;2023-05-13T05:27:56;6.18;;;3.75;;
21959;SDS011;11144;43.030;25.108;2023-05-13T05:29:29;8.43;;;3.83;;
21959;SDS011;11144;43.030;25.108;2023-05-13T05:31:02;5.75;;;3.47;;
21959;SDS011;11144;43.030;25.108;2023-05-13T05:32:38;7.90;;;3.85;;
21959;SDS011;11144;43.030;25.108;2023-05-13T05:34:12;6.13;;;3.55;;
21959;SDS011;11144;43.030;25.108;2023-05-13T05:35:46;5.57;;;3.30;;
21959;SDS011;11144;43.030;25.108;2023-05-13T05:37:22;8.80;;;4.13;;
21959;SDS011;11144;43.030;25.108;2023-05-13T05:38:56;7.15;;;4.22;;
21959;SDS011;11144;43.030;25.108;2023-05-13T05:40:35;7.72;;;3.70;;
21959;SDS011;11144;43.030;25.108;2023-05-13T05:42:12;5.82;;;3.78;;
21959;SDS011;11144;43.030;25.108;2023-05-13T05:43:45;9.32;;;3.75;;
21959;SDS011;11144;43.030;25.108;2023-05-13T05:45:19;13.77;;;3.85;;
21959;SDS011;11144;43.030;25.108;2023-05-13T05:46:52;6.95;;;3.58;;
21959;SDS011;11144;43.030;25.108;2023-05-13T05:48:28;6.93;;;3.97;;
21959;SDS011;11144;43.030;25.108;2023-05-13T05:50:05;9.63;;;3.85;;
21959;SDS011;11144;43.030;25.108;2023-05-13T05:51:39;6.85;;;3.88;;
21959;SDS011;11144;43.030;25.108;2023-05-13T05:53:12;6.35;;;3.35;;
21959;SDS011;11144;43.030;25.108;2023-05-13T05:54:46;6.40;;;3.03;;
21959;SDS011;11144;43.030;25.108;2023-05-13T05:56:19;5.03;;;2.97;;
21959;SDS011;11144;43.030;25.108;2023-05-13T05:57:53;6.07;;;3.35;;
21959;SDS011;11144;43.030;25.108;2023-05-13T05:59:28;5.85;;;3.38;;
21959;SDS011;11144;43.030;25.108;2023-05-13T06:01:02;5.25;;;3.10;;
21959;SDS011;11144;43.030;25.108;2023-05-13T06:02:36;4.90;;;2.65;;
21959;SDS011;11144;43.030;25.108;2023-05-13T06:04:11;7.60;;;3.10;;
21959;SDS011;11144;43.030;25.108;2023-05-13T06:05:45;8.13;;;3.63;;
21959;SDS011;11144;43.030;25.108;2023-05-13T06:07:18;7.05;;;3.25;;
21959;SDS011;11144;43.030;25.108;2023-05-13T06:08:50;9.57;;;3.28;;
21959;SDS011;11144;43.030;25.108;2023-05-13T06:10:23;5.40;;;3.35;;
21959;SDS011;11144;43.030;25.108;2023-05-13T06:11:57;5.75;;;3.47;;
21959;SDS011;11144;43.030;25.108;2023-05-13T06:13:31;7.32;;;3.10;;
21959;SDS011;11144;43.030;25.108;2023-05-13T06:15:05;8.65;;;3.30;;
21959;SDS011;11144;43.030;25.108;2023-05-13T06:16:41;7.25;;;2.78;;
21959;SDS011;11144;43.030;25.108;2023-05-13T06:18:14;5.07;;;2.50;;
21959;SDS011;11144;43.030;25.108;2023-05-13T06:19:49;4.57;;;2.67;;
21959;SDS011;11144;43.030;25.108;2023-05-13T06:21:22;3.95;;;2.40;;
21959;SDS011;11144;43.030;25.108;2023-05-13T06:22:55;8.32;;;3.00;;
21959;SDS011;11144;43.030;25.108;2023-05-13T06:24:29;8.48;;;4.78;;
21959;SDS011;11144;43.030;25.108;2023-05-13T06:26:02;4.97;;;3.20;;
21959;SDS011;11144;43.030;25.108;2023-05-13T06:27:37;7.43;;;3.67;;
21959;SDS011;11144;43.030;25.108;2023-05-13T06:29:10;5.55;;;3.08;;
21959;SDS011;11144;43.030;25.108;2023-05-13T06:30:43;7.13;;;2.70;;
21959;SDS011;11144;43.030;25.108;2023-05-13T06:32:16;3.83;;;2.65;;
21959;SDS011;11144;43.030;25.108;2023-05-13T06:33:49;7.05;;;3.05;;
21959;SDS011;11144;43.030;25.108;2023-05-13T06:35:24;5.28;;;2.75;;
21959;SDS011;11144;43.030;25.108;2023-05-13T06:36:57;4.82;;;2.40;;
21959;SDS011;11144;43.030;25.108;2023-05-13T06:38:31;5.07;;;2.70;;
21959;SDS011;11144;43.030;25.108;2023-05-13T06:40:06;4.95;;;2.72;;
21959;SDS011;11144;43.030;25.108;2023-05-13T06:41:44;4.95;;;2.08;;
21959;SDS011;11144;43.030;25.108;2023-05-13T06:43:20;6.57;;;2.97;;
21959;SDS011;11144;43.030;25.108;2023-05-13T06:44:59;2.88;;;2.28;;
21959;SDS011;11144;43.030;25.108;2023-05-13T06:46:34;3.42;;;1.90;;
21959;SDS011;11144;43.030;25.108;2023-05-13T06:48:07;5.35;;;2.58;;
21959;SDS011;11144;43.030;25.108;2023-05-13T06:49:41;6.63;;;2.22;;
21959;SDS011;11144;43.030;25.108;2023-05-13T06:51:15;6.15;;;2.55;;
21959;SDS011;11144;43.030;25.108;2023-05-13T06:52:49;3.85;;;1.92;;
21959;SDS011;11144;43.030;25.108;2023-05-13T06:54:22;3.63;;;2.28;;
21959;SDS011;11144;43.030;25.108;2023-05-13T06:55:55;4.90;;;2.08;;
21959;SDS011;11144;43.030;25.108;2023-05-13T06:57:28;3.78;;;1.70;;
21959;SDS011;11144;43.030;25.108;2023-05-13T06:59:13;3.30;;;1.77;;
21959;SDS011;11144;43.030;25.108;2023-05-13T07:00:46;2.58;;;1.40;;
21959;SDS011;11144;43.030;25.108;2023-05-13T07:02:20;2.95;;;1.55;;
21959;SDS011;11144;43.030;25.108;2023-05-13T07:03:53;5.80;;;1.77;;
21959;SDS011;11144;43.030;25.108;2023-05-13T07:05:26;3.25;;;1.77;;
21959;SDS011;11144;43.030;25.108;2023-05-13T07:07:01;2.58;;;1.60;;
21959;SDS011;11144;43.030;25.108;2023-05-13T07:08:35;7.35;;;2.10;;
21959;SDS011;11144;43.030;25.108;2023-05-13T07:10:09;4.00;;;1.67;;
21959;SDS011;11144;43.030;25.108;2023-05-13T07:11:42;3.75;;;2.10;;
21959;SDS011;11144;43.030;25.108;2023-05-13T07:13:16;4.15;;;2.05;;
21959;SDS011;11144;43.030;25.108;2023-05-13T07:14:50;2.88;;;1.92;;
21959;SDS011;11144;43.030;25.108;2023-05-13T07:16:24;6.93;;;1.88;;
21959;SDS011;11144;43.030;25.108;2023-05-13T07:17:57;5.05;;;2.47;;
21959;SDS011;11144;43.030;25.108;2023-05-13T07:19:30;4.70;;;2.13;;
21959;SDS011;11144;43.030;25.108;2023-05-13T07:21:04;5.05;;;1.80;;
21959;SDS011;11144;43.030;25.108;2023-05-13T07:22:39;3.25;;;1.73;;
21959;SDS011;11144;43.030;25.108;2023-05-13T07:24:12;4.88;;;2.05;;
21959;SDS011;11144;43.030;25.108;2023-05-13T07:25:46;5.25;;;2.05;;
21959;SDS011;11144;43.030;25.108;2023-05-13T07:27:20;5.07;;;2.47;;
21959;SDS011;11144;43.030;25.108;2023-05-13T07:28:55;5.00;;;2.05;;
21959;SDS011;11144;43.030;25.108;2023-05-13T07:30:28;4.22;;;2.13;;
21959;SDS011;11144;43.030;25.108;2023-05-13T07:32:02;3.95;;;1.90;;
21959;SDS011;11144;43.030;25.108;2023-05-13T07:33:36;3.15;;;1.98;;
21959;SDS011;11144;43.030;25.108;2023-05-13T07:35:09;3.78;;;1.98;;
21959;SDS011;11144;43.030;25.108;2023-05-13T07:36:43;2.67;;;1.70;;
21959;SDS011;11144;43.030;25.108;2023-05-13T07:38:17;3.35;;;1.85;;
21959;SDS011;11144;43.030;25.108;2023-05-13T07:39:51;4.50;;;2.38;;
21959;SDS011;11144;43.030;25.108;2023-05-13T07:41:24;3.10;;;1.77;;
21959;SDS011;11144;43.030;25.108;2023-05-13T07:42:58;5.47;;;2.10;;
21959;SDS011;11144;43.030;25.108;2023-05-13T07:44:31;5.60;;;2.15;;
21959;SDS011;11144;43.030;25.108;2023-05-13T07:46:04;4.15;;;2.08;;
21959;SDS011;11144;43.030;25.108;2023-05-13T07:47:38;5.43;;;2.67;;
21959;SDS011;11144;43.030;25.108;2023-05-13T07:49:14;3.67;;;2.10;;
21959;SDS011;11144;43.030;25.108;2023-05-13T07:50:48;4.18;;;2.20;;
21959;SDS011;11144;43.030;25.108;2023-05-13T07:52:21;3.55;;;1.98;;
21959;SDS011;11144;43.030;25.108;2023-05-13T07:53:56;3.65;;;1.92;;
21959;SDS011;11144;43.030;25.108;2023-05-13T07:55:29;4.78;;;1.90;;
21959;SDS011;11144;43.030;25.108;2023-05-13T07:57:02;6.20;;;1.90;;
21959;SDS011;11144;43.030;25.108;2023-05-13T07:58:36;8.10;;;2.78;;
21959;SDS011;11144;43.030;25.108;2023-05-13T08:00:09;3.05;;;1.90;;
21959;SDS011;11144;43.030;25.108;2023-05-13T08:01:43;7.50;;;1.88;;
21959;SDS011;11144;43.030;25.108;2023-05-13T08:03:16;3.75;;;1.77;;
21959;SDS011;11144;43.030;25.108;2023-05-13T08:04:50;4.13;;;1.67;;
21959;SDS011;11144;43.030;25.108;2023-05-13T08:06:25;3.17;;;1.77;;
21959;SDS011;11144;43.030;25.108;2023-05-13T08:07:58;3.67;;;1.92;;
21959;SDS011;11144;43.030;25.108;2023-05-13T08:09:33;2.80;;;1.80;;
21959;SDS011;11144;43.030;25.108;2023-05-13T08:11:07;3.22;;;1.83;;
21959;SDS011;11144;43.030;25.108;2023-05-13T08:12:40;3.13;;;2.22;;
21959;SDS011;11144;43.030;25.108;2023-05-13T08:14:13;3.00;;;1.70;;
21959;SDS011;11144;43.030;25.108;2023-05-13T08:15:47;2.42;;;1.30;;
21959;SDS011;11144;43.030;25.108;2023-05-13T08:17:20;4.55;;;1.60;;
21959;SDS011;11144;43.030;25.108;2023-05-13T08:18:53;3.22;;;2.05;;
21959;SDS011;11144;43.030;25.108;2023-05-13T08:20:27;4.50;;;1.67;;
21959;SDS011;11144;43.030;25.108;2023-05-13T08:22:01;4.57;;;1.58;;
21959;SDS011;11144;43.030;25.108;2023-05-13T08:23:35;2.42;;;1.58;;
21959;SDS011;11144;43.030;25.108;2023-05-13T08:25:17;3.05;;;2.15;;
21959;SDS011;11144;43.030;25.108;2023-05-13T08:26:52;8.35;;;2.08;;
21959;SDS011;11144;43.030;25.108;2023-05-13T08:28:25;3.60;;;1.48;;
21959;SDS011;11144;43.030;25.108;2023-05-13T08:29:57;2.95;;;1.35;;
21959;SDS011;11144;43.030;25.108;2023-05-13T08:31:31;3.00;;;1.38;;
21959;SDS011;11144;43.030;25.108;2023-05-13T08:33:03;3.28;;;1.63;;
21959;SDS011;11144;43.030;25.108;2023-05-13T08:34:36;3.75;;;1.48;;
21959;SDS011;11144;43.030;25.108;2023-05-13T08:36:10;2.85;;;1.65;;
21959;SDS011;11144;43.030;25.108;2023-05-13T08:37:43;3.78;;;1.20;;
21959;SDS011;11144;43.030;25.108;2023-05-13T08:39:17;2.28;;;1.50;;
21959;SDS011;11144;43.030;25.108;2023-05-13T08:40:51;2.45;;;1.40;;
21959;SDS011;11144;43.030;25.108;2023-05-13T08:42:25;2.10;;;1.48;;
21959;SDS011;11144;43.030;25.108;2023-05-13T08:44:01;5.32;;;1.45;;
21959;SDS011;11144;43.030;25.108;2023-05-13T08:45:37;3.20;;;1.30;;
21959;SDS011;11144;43.030;25.108;2023-05-13T08:47:13;3.75;;;1.67;;
21959;SDS011;11144;43.030;25.108;2023-05-13T08:48:58;2.00;;;1.13;;
21959;SDS011;11144;43.030;25.108;2023-05-13T08:50:32;1.98;;;1.17;;
21959;SDS011;11144;43.030;25.108;2023-05-13T08:52:06;2.05;;;1.35;;
21959;SDS011;11144;43.030;25.108;2023-05-13T08:53:40;3.33;;;1.95;;
21959;SDS011;11144;43.030;25.108;2023-05-13T08:55:14;4.00;;;1.77;;
21959;SDS011;11144;43.030;25.108;2023-05-13T08:56:51;4.55;;;2.08;;
21959;SDS011;11144;43.030;25.108;2023-05-13T08:58:24;3.70;;;1.45;;
21959;SDS011;11144;43.030;25.108;2023-05-13T08:59:58;4.35;;;1.42;;
21959;SDS011;11144;43.030;25.108;2023-05-13T09:01:31;2.03;;;1.60;;
21959;SDS011;11144;43.030;25.108;2023-05-13T09:03:05;2.33;;;1.40;;
21959;SDS011;11144;43.030;25.108;2023-05-13T09:04:38;1.75;;;1.20;;
21959;SDS011;11144;43.030;25.108;2023-05-13T09:06:13;2.90;;;1.40;;
21959;SDS011;11144;43.030;25.108;2023-05-13T09:07:47;1.85;;;1.17;;
21959;SDS011;11144;43.030;25.108;2023-05-13T09:09:20;2.33;;;1.10;;
21959;SDS011;11144;43.030;25.108;2023-05-13T09:10:53;1.85;;;1.08;;
21959;SDS011;11144;43.030;25.108;2023-05-13T09:12:47;3.05;;;1.30;;
21959;SDS011;11144;43.030;25.108;2023-05-13T09:14:22;3.45;;;0.93;;
21959;SDS011;11144;43.030;25.108;2023-05-13T09:16:01;1.50;;;1.15;;
21959;SDS011;11144;43.030;25.108;2023-05-13T09:17:35;3.05;;;1.40;;
21959;SDS011;11144;43.030;25.108;2023-05-13T09:19:10;2.35;;;1.13;;